Navarino, Wisconsin
Current Conditions -  °F | °C
As of 4:35 PM on Monday 24 Nov 2014 (Local Time) from KEZS Reporting Station
Moderate Snow Moderate Snow  
Wind Chill: -5°   Ceiling: 300
Heat Index:   Visibility: 0.5mi
Dew Point:   Wind: 13mph
Humidity: 95%   Direction: 330°NNW
Pressure: 29.32"   Gusts: 22mph
Location:  44.7353°N, 88.4379°W
Report Text: KEZS 242235Z AUTO 33011G19KT 1/2SM SN OVC003 00/00 A2932 RMK AO2 P0001 T00031004
Loading
Personal Weather Stations






























Interactive Weather Map New forecast layout! Learn more

10-Day Weather Forecast

Advertisements
Track Severe Weather on mobile